createdAt,value
2019-04-11T00:02:09.188Z,3.70
2019-04-11T00:04:40.056Z,3.70
2019-04-11T00:07:09.970Z,3.70
2019-04-11T00:09:40.788Z,3.60
2019-04-11T00:12:10.684Z,3.60
2019-04-11T00:14:40.595Z,3.70
2019-04-11T00:17:10.249Z,3.60
2019-04-11T00:19:40.001Z,3.70
2019-04-11T00:22:09.761Z,3.60
2019-04-11T00:24:40.651Z,3.60
2019-04-11T00:27:10.813Z,3.70
2019-04-11T00:29:40.762Z,3.70
2019-04-11T00:32:12.286Z,3.70
2019-04-11T00:34:43.236Z,3.70
2019-04-11T00:37:12.862Z,3.70
2019-04-11T00:39:43.735Z,3.70
2019-04-11T00:42:14.554Z,3.70
2019-04-11T00:44:45.241Z,3.70
2019-04-11T00:47:15.163Z,3.70
2019-04-11T00:49:46.377Z,3.70
2019-04-11T00:52:16.314Z,3.70
2019-04-11T00:54:46.971Z,3.70
2019-04-11T00:57:16.915Z,3.70
2019-04-11T00:59:46.825Z,3.70
2019-04-11T01:02:17.630Z,3.70
2019-04-11T01:04:48.667Z,3.70
2019-04-11T01:07:18.766Z,3.70
2019-04-11T01:09:48.671Z,3.70
2019-04-11T01:12:20.546Z,3.60
2019-04-11T01:14:51.249Z,3.60
2019-04-11T01:17:21.280Z,3.60
2019-04-11T01:19:51.161Z,3.60
2019-04-11T01:22:21.029Z,3.60
2019-04-11T01:24:50.690Z,3.60
2019-04-11T01:27:21.545Z,3.50
2019-04-11T01:29:51.617Z,3.50
2019-04-11T01:32:22.286Z,3.50
2019-04-11T01:34:52.983Z,3.40
2019-04-11T01:37:23.815Z,3.40
2019-04-11T01:39:59.872Z,3.30
2019-04-11T01:42:31.255Z,3.30
2019-04-11T01:45:01.167Z,3.30
2019-04-11T01:47:46.921Z,3.40
2019-04-11T01:50:20.938Z,3.40
2019-04-11T01:52:50.872Z,3.40
2019-04-11T01:55:20.706Z,3.40
2019-04-11T01:57:50.478Z,3.40
2019-04-11T02:00:34.383Z,3.40
2019-04-11T02:03:04.730Z,3.40
2019-04-11T02:05:35.400Z,3.50
2019-04-11T02:08:05.244Z,3.50
2019-04-11T02:10:35.197Z,3.50
2019-04-11T02:13:05.829Z,3.50
2019-04-11T02:15:36.672Z,3.50
2019-04-11T02:18:07.621Z,3.50
2019-04-11T02:20:37.442Z,3.60
2019-04-11T02:23:20.065Z,3.60
2019-04-11T02:26:22.447Z,3.60
2019-04-11T02:28:53.036Z,3.60
2019-04-11T02:31:23.314Z,3.60
2019-04-11T02:33:53.144Z,3.60
2019-04-11T02:36:22.872Z,3.60
2019-04-11T02:38:55.214Z,3.60
2019-04-11T02:41:25.447Z,3.60
2019-04-11T02:43:57.290Z,3.60
2019-04-11T02:46:37.119Z,3.60
2019-04-11T02:49:00.848Z,3.60
2019-04-11T02:51:31.169Z,3.60
2019-04-11T02:54:02.252Z,3.60
2019-04-11T02:56:33.424Z,3.60
2019-04-11T02:59:05.160Z,3.60
2019-04-11T03:01:36.365Z,3.60
2019-04-11T03:04:07.547Z,3.60
2019-04-11T03:06:39.722Z,3.70
2019-04-11T03:09:10.917Z,3.70
2019-04-11T03:11:41.062Z,3.70
2019-04-11T03:14:12.208Z,3.70
2019-04-11T03:16:52.012Z,3.70
2019-04-11T03:19:29.648Z,3.70
2019-04-11T03:21:47.346Z,3.70
2019-04-11T03:24:17.725Z,3.70
2019-04-11T03:26:49.726Z,3.70
2019-04-11T03:29:20.379Z,3.70
2019-04-11T03:32:31.523Z,3.80
2019-04-11T03:35:27.045Z,3.70
2019-04-11T03:39:43.628Z,3.70
2019-04-11T03:42:15.748Z,3.70
2019-04-11T03:44:37.191Z,3.70
2019-04-11T03:47:18.069Z,3.70
2019-04-11T03:49:41.945Z,3.70
2019-04-11T03:52:08.188Z,3.70
2019-04-11T03:54:38.941Z,3.70
2019-04-11T03:57:09.823Z,3.80
2019-04-11T03:59:40.719Z,3.80
2019-04-11T04:02:13.025Z,3.80
2019-04-11T04:04:43.611Z,3.80
2019-04-11T04:07:16.546Z,3.80
2019-04-11T04:09:46.309Z,3.70
2019-04-11T04:12:18.542Z,3.70
2019-04-11T04:14:58.942Z,3.70
2019-04-11T04:17:45.628Z,3.70
2019-04-11T04:20:35.237Z,3.70
2019-04-11T04:23:11.896Z,3.70
2019-04-11T04:25:43.486Z,3.70
2019-04-11T04:28:14.246Z,3.70
2019-04-11T04:30:45.299Z,3.70
2019-04-11T04:33:17.069Z,3.70
2019-04-11T04:35:47.645Z,3.70
2019-04-11T04:38:18.920Z,3.70
2019-04-11T04:41:05.912Z,3.70
2019-04-11T04:43:22.718Z,3.70
2019-04-11T04:46:10.304Z,3.70
2019-04-11T04:48:26.773Z,3.70
2019-04-11T04:50:57.623Z,3.70
2019-04-11T04:53:28.354Z,3.70
2019-04-11T04:55:58.196Z,3.70
2019-04-11T04:58:29.329Z,3.80
2019-04-11T05:01:01.147Z,3.70
2019-04-11T05:03:32.003Z,3.80
2019-04-11T05:06:03.861Z,3.70
2019-04-11T05:08:34.720Z,3.80
2019-04-11T05:11:04.772Z,3.80
2019-04-11T05:13:35.238Z,3.80
2019-04-11T05:16:15.124Z,3.80
2019-04-11T05:18:37.753Z,3.80
2019-04-11T05:21:08.380Z,3.80
2019-04-11T05:23:39.467Z,3.80
2019-04-11T05:26:09.196Z,3.80
2019-04-11T05:28:39.365Z,3.80
2019-04-11T05:31:10.179Z,3.80
2019-04-11T05:33:40.138Z,3.80
2019-04-11T05:36:10.228Z,3.80
2019-04-11T05:38:42.132Z,3.80
2019-04-11T05:41:13.508Z,3.90
2019-04-11T05:43:43.342Z,3.80
2019-04-11T05:46:29.898Z,3.80
2019-04-11T05:49:00.457Z,3.90
2019-04-11T05:51:36.894Z,3.90
2019-04-11T05:54:01.948Z,3.90
2019-04-11T05:56:31.758Z,3.90
2019-04-11T05:59:07.797Z,3.90
2019-04-11T06:01:42.515Z,3.90
2019-04-11T06:04:23.319Z,3.80
2019-04-11T06:06:59.723Z,3.80
2019-04-11T06:09:32.954Z,3.80
2019-04-11T06:12:19.575Z,3.70
2019-04-11T06:14:55.655Z,3.60
2019-04-11T06:17:25.989Z,3.60
2019-04-11T06:20:14.405Z,3.50
2019-04-11T06:22:50.596Z,3.50
2019-04-11T06:25:51.866Z,3.40
2019-04-11T06:28:24.436Z,3.30
2019-04-11T06:31:12.097Z,3.20
2019-04-11T06:33:46.906Z,3.20
2019-04-11T06:36:30.363Z,3.10
2019-04-11T06:39:13.769Z,3.10
2019-04-11T06:42:04.129Z,3.10
2019-04-11T06:44:46.057Z,3.20
2019-04-11T06:47:29.919Z,3.20
2019-04-11T06:50:07.128Z,3.30
2019-04-11T06:52:37.362Z,3.50
2019-04-11T06:55:26.747Z,3.60
2019-04-11T06:58:04.758Z,3.80
2019-04-11T07:00:34.984Z,3.90
2019-04-11T07:03:05.595Z,4.10
2019-04-11T07:05:38.536Z,4.20
2019-04-11T07:08:09.632Z,4.30
2019-04-11T07:10:48.855Z,4.40
2019-04-11T07:13:24.835Z,4.60
2019-04-11T07:15:56.907Z,4.70
2019-04-11T07:18:44.239Z,4.80
2019-04-11T07:21:14.978Z,4.90
2019-04-11T07:24:03.258Z,4.90
2019-04-11T07:26:42.018Z,5.00
2019-04-11T07:29:37.894Z,5.10
2019-04-11T07:32:18.141Z,5.20
2019-04-11T07:35:06.371Z,5.20
2019-04-11T07:37:57.789Z,5.30
2019-04-11T07:40:45.471Z,5.30
2019-04-11T07:43:23.282Z,5.40
2019-04-11T07:46:25.229Z,5.40
2019-04-11T07:48:59.419Z,5.50
2019-04-11T07:51:30.415Z,5.40
2019-04-11T07:54:02.620Z,5.40
2019-04-11T07:57:04.192Z,5.30
2019-04-11T08:00:03.760Z,5.10
2019-04-11T08:02:51.731Z,4.70
2019-04-11T08:05:58.954Z,4.50
2019-04-11T08:08:44.195Z,4.30
2019-04-11T08:11:42.594Z,4.20
2019-04-11T08:14:30.753Z,4.20
2019-04-11T08:17:33.712Z,4.30
2019-04-11T08:20:15.342Z,4.40
2019-04-11T08:22:55.054Z,4.60
2019-04-11T08:25:41.919Z,4.70
2019-04-11T08:28:14.046Z,4.80
2019-04-11T08:31:09.378Z,5.00
2019-04-11T08:33:40.500Z,5.10
2019-04-11T08:36:27.891Z,5.20
2019-04-11T08:39:00.584Z,5.20
2019-04-11T08:41:49.647Z,5.30
2019-04-11T08:44:23.779Z,5.30
2019-04-11T08:47:02.561Z,5.30
2019-04-11T08:49:39.750Z,5.40
2019-04-11T08:52:15.974Z,5.40
2019-04-11T08:55:12.172Z,5.40
2019-04-11T08:57:44.850Z,5.40
2019-04-11T09:00:49.871Z,5.40
2019-04-11T09:03:58.184Z,5.40
2019-04-11T09:06:26.827Z,5.60
2019-04-11T09:09:15.314Z,5.70
2019-04-11T09:11:50.936Z,5.90
2019-04-11T09:14:52.693Z,5.90
2019-04-11T09:17:28.675Z,6.00
2019-04-11T09:20:16.667Z,6.20
2019-04-11T09:22:53.243Z,6.40
2019-04-11T09:25:43.447Z,6.50
2019-04-11T09:28:19.555Z,6.60
2019-04-11T09:31:10.544Z,6.70
2019-04-11T09:33:58.070Z,6.90
2019-04-11T09:37:03.176Z,7.00
2019-04-11T09:39:39.227Z,7.10
2019-04-11T09:42:28.299Z,7.20
2019-04-11T09:45:10.989Z,7.40
2019-04-11T09:48:08.371Z,7.50
2019-04-11T09:50:42.726Z,7.60
2019-04-11T09:53:12.793Z,7.70
2019-04-11T09:56:00.528Z,7.80
2019-04-11T09:58:31.569Z,7.90
2019-04-11T10:01:13.427Z,7.80
2019-04-11T10:03:43.403Z,7.90
2019-04-11T10:06:36.616Z,7.90
2019-04-11T10:09:11.469Z,8.00
2019-04-11T10:11:59.185Z,8.00
2019-04-11T10:14:31.402Z,8.20
2019-04-11T10:17:22.264Z,8.20
2019-04-11T10:19:54.147Z,8.40
2019-04-11T10:22:48.071Z,8.50
2019-04-11T10:25:37.338Z,8.60
2019-04-11T10:28:29.708Z,8.50
2019-04-11T10:31:08.521Z,8.60
2019-04-11T10:33:45.252Z,8.50
2019-04-11T10:36:29.554Z,8.40
2019-04-11T10:39:11.058Z,8.00
2019-04-11T10:41:44.059Z,8.10
2019-04-11T10:44:17.951Z,8.20
2019-04-11T10:46:53.119Z,8.20
2019-04-11T10:49:44.939Z,8.50
2019-04-11T10:52:38.291Z,8.70
2019-04-11T10:55:11.457Z,8.90
2019-04-11T10:57:46.792Z,8.70
2019-04-11T11:00:25.122Z,8.80
2019-04-11T11:03:06.137Z,8.80
2019-04-11T11:05:38.110Z,8.70
2019-04-11T11:08:26.011Z,8.50
2019-04-11T11:10:57.751Z,8.60
2019-04-11T11:13:47.702Z,8.70
2019-04-11T11:16:22.303Z,8.70
2019-04-11T11:19:41.977Z,8.80
2019-04-11T11:22:05.099Z,8.90
2019-04-11T11:25:11.651Z,8.90
2019-04-11T11:27:39.486Z,8.70
2019-04-11T11:30:27.450Z,8.70
2019-04-11T11:32:58.239Z,8.70
2019-04-11T11:35:40.995Z,8.90
2019-04-11T11:38:16.256Z,8.90
2019-04-11T11:41:24.740Z,9.10
2019-04-11T11:43:55.094Z,9.40
2019-04-11T11:46:43.051Z,9.40
2019-04-11T11:49:29.613Z,9.30
2019-04-11T11:52:09.190Z,9.20
2019-04-11T11:54:44.009Z,8.80
2019-04-11T11:57:22.523Z,8.60
2019-04-11T11:59:56.593Z,8.70
2019-04-11T12:02:34.864Z,8.80
2019-04-11T12:05:14.854Z,8.70
2019-04-11T12:07:47.306Z,8.70
2019-04-11T12:10:25.992Z,8.90
2019-04-11T12:13:21.967Z,8.90
2019-04-11T12:16:10.004Z,8.60
2019-04-11T12:18:55.100Z,8.60
2019-04-11T12:21:28.525Z,8.30
2019-04-11T12:24:20.787Z,8.20
2019-04-11T12:27:09.917Z,8.20
2019-04-11T12:30:15.537Z,8.30
2019-04-11T12:32:55.097Z,8.40
2019-04-11T12:35:44.994Z,8.50
2019-04-11T12:38:24.538Z,8.30
2019-04-11T12:41:14.932Z,8.30
2019-04-11T12:44:04.198Z,8.40
2019-04-11T12:46:51.938Z,8.40
2019-04-11T12:49:52.956Z,8.60
2019-04-11T12:52:30.530Z,8.70
2019-04-11T12:55:00.651Z,8.80
2019-04-11T12:57:52.190Z,8.90
2019-04-11T13:00:39.323Z,8.80
2019-04-11T13:03:28.758Z,8.60
2019-04-11T13:06:02.475Z,8.70
2019-04-11T13:08:49.915Z,8.70
2019-04-11T13:11:19.653Z,8.60
2019-04-11T13:14:12.298Z,8.10
2019-04-11T13:16:44.427Z,7.90
2019-04-11T13:19:51.619Z,7.60
2019-04-11T13:22:23.324Z,7.70
2019-04-11T13:25:06.451Z,7.70
2019-04-11T13:27:49.104Z,7.60
2019-04-11T13:30:42.607Z,7.40
2019-04-11T13:33:19.028Z,7.30
2019-04-11T13:36:06.815Z,7.30
2019-04-11T13:38:47.543Z,7.40
2019-04-11T13:41:32.091Z,7.40
2019-04-11T13:44:09.872Z,7.30
2019-04-11T13:46:58.833Z,7.40
2019-04-11T13:49:48.656Z,7.30
2019-04-11T13:52:32.995Z,7.20
2019-04-11T13:55:37.820Z,7.20
2019-04-11T13:58:25.750Z,7.10
2019-04-11T14:00:56.790Z,7.10
2019-04-11T14:03:48.985Z,7.00
2019-04-11T14:06:27.886Z,7.00
2019-04-11T14:09:19.889Z,6.90
2019-04-11T14:11:53.905Z,6.90
2019-04-11T14:14:35.713Z,6.90
2019-04-11T14:17:24.859Z,6.80
2019-04-11T14:20:12.608Z,6.80
2019-04-11T14:23:05.659Z,6.70
2019-04-11T14:25:47.114Z,6.70
2019-04-11T14:28:17.090Z,6.60
2019-04-11T14:31:00.847Z,6.60
2019-04-11T14:33:32.207Z,6.70
2019-04-11T14:36:39.258Z,6.70
2019-04-11T14:39:11.095Z,6.50
2019-04-11T14:42:04.383Z,6.20
2019-04-11T14:44:35.003Z,6.20
2019-04-11T14:47:22.599Z,6.00
2019-04-11T14:49:57.872Z,5.90
2019-04-11T14:53:02.158Z,5.80
2019-04-11T14:55:33.623Z,5.80
2019-04-11T14:58:23.756Z,5.80
2019-04-11T15:00:55.020Z,5.80
2019-04-11T15:03:36.552Z,5.70
2019-04-11T15:06:14.546Z,5.80
2019-04-11T15:08:54.217Z,5.70
2019-04-11T15:11:38.483Z,5.70
2019-04-11T15:14:18.200Z,5.80
2019-04-11T15:17:07.151Z,5.90
2019-04-11T15:19:36.922Z,5.90
2019-04-11T15:22:39.185Z,5.80
2019-04-11T15:25:16.683Z,5.80
2019-04-11T15:28:17.468Z,5.90
2019-04-11T15:30:49.490Z,5.90
2019-04-11T15:33:44.863Z,5.90
2019-04-11T15:36:16.929Z,5.90
2019-04-11T15:38:57.211Z,5.80
2019-04-11T15:41:27.495Z,5.80
2019-04-11T15:44:14.967Z,5.80
2019-04-11T15:46:47.604Z,5.80
2019-04-11T15:49:46.500Z,5.80
2019-04-11T15:52:18.698Z,5.90
2019-04-11T15:55:13.644Z,5.90
2019-04-11T15:57:46.250Z,5.90
2019-04-11T16:00:47.368Z,5.80
2019-04-11T16:03:19.667Z,5.70
2019-04-11T16:06:07.398Z,5.70
2019-04-11T16:08:43.643Z,5.60
2019-04-11T16:11:32.620Z,5.50
2019-04-11T16:14:10.769Z,5.40
2019-04-11T16:16:59.680Z,5.30
2019-04-11T16:19:47.914Z,5.30
2019-04-11T16:22:45.967Z,5.20
2019-04-11T16:25:28.958Z,5.20
2019-04-11T16:28:14.105Z,5.10
2019-04-11T16:30:51.919Z,5.20
2019-04-11T16:33:30.723Z,5.20
2019-04-11T16:36:13.736Z,5.20
2019-04-11T16:39:01.462Z,5.20
2019-04-11T16:41:51.619Z,5.20
2019-04-11T16:44:29.568Z,5.10
2019-04-11T16:47:36.815Z,5.20
2019-04-11T16:50:06.687Z,5.20
2019-04-11T16:52:38.657Z,5.10
2019-04-11T16:55:10.046Z,5.10
2019-04-11T16:57:43.840Z,5.10
2019-04-11T17:00:14.121Z,5.10
2019-04-11T17:02:47.247Z,5.10
2019-04-11T17:05:17.140Z,5.10
2019-04-11T17:07:57.380Z,5.10
2019-04-11T17:10:44.869Z,5.00
2019-04-11T17:13:14.904Z,5.00
2019-04-11T17:15:44.737Z,5.00
2019-04-11T17:18:14.435Z,5.00
2019-04-11T17:20:44.115Z,5.00
2019-04-11T17:23:13.775Z,5.00
2019-04-11T17:25:43.499Z,5.00
2019-04-11T17:28:13.284Z,4.90
2019-04-11T17:30:43.038Z,4.90
2019-04-11T17:33:13.791Z,4.90
2019-04-11T17:35:43.575Z,4.90
2019-04-11T17:38:13.396Z,4.90
2019-04-11T17:40:43.055Z,4.90
2019-04-11T17:43:13.888Z,4.90
2019-04-11T17:45:44.330Z,4.90
2019-04-11T17:48:14.346Z,4.90
2019-04-11T17:50:44.482Z,4.90
2019-04-11T17:53:14.278Z,4.80
2019-04-11T17:55:44.111Z,4.80
2019-04-11T17:58:13.873Z,4.80
2019-04-11T18:00:45.759Z,4.80
2019-04-11T18:03:16.482Z,4.80
2019-04-11T18:05:47.024Z,4.80
2019-04-11T18:08:19.897Z,4.80
2019-04-11T18:10:48.676Z,4.70
2019-04-11T18:13:23.143Z,4.70
2019-04-11T18:15:55.557Z,4.70
2019-04-11T18:18:25.266Z,4.70
2019-04-11T18:20:55.079Z,4.70
2019-04-11T18:23:24.959Z,4.60
2019-04-11T18:25:54.650Z,4.60
2019-04-11T18:28:24.317Z,4.60
2019-04-11T18:30:54.745Z,4.60
2019-04-11T18:33:24.635Z,4.60
2019-04-11T18:35:54.572Z,4.60
2019-04-11T18:38:24.355Z,4.60
2019-04-11T18:40:55.281Z,4.60
2019-04-11T18:43:25.557Z,4.60
2019-04-11T18:45:55.608Z,4.60
2019-04-11T18:48:25.413Z,4.60
2019-04-11T18:50:55.111Z,4.50
2019-04-11T18:53:24.852Z,4.50
2019-04-11T18:55:54.643Z,4.50
2019-04-11T18:58:24.343Z,4.40
2019-04-11T19:00:54.197Z,4.40
2019-04-11T19:03:35.438Z,4.40
2019-04-11T19:05:55.416Z,4.40
2019-04-11T19:08:25.223Z,4.40
2019-04-11T19:10:55.090Z,4.40
2019-04-11T19:13:24.872Z,4.30
2019-04-11T19:15:54.782Z,4.30
2019-04-11T19:18:24.460Z,4.30
2019-04-11T19:20:54.152Z,4.30
2019-04-11T19:23:23.897Z,4.30
2019-04-11T19:25:53.531Z,4.30
2019-04-11T19:28:25.119Z,4.20
2019-04-11T19:30:56.784Z,4.20
2019-04-11T19:33:26.103Z,4.20
2019-04-11T19:35:55.863Z,4.20
2019-04-11T19:38:27.545Z,4.20
2019-04-11T19:40:57.280Z,4.20
2019-04-11T19:43:27.075Z,4.20
2019-04-11T19:45:58.651Z,4.20
2019-04-11T19:48:28.156Z,4.20
2019-04-11T19:50:59.006Z,4.20
2019-04-11T19:53:32.818Z,4.10
2019-04-11T19:56:06.260Z,4.20
2019-04-11T19:58:35.983Z,4.10
2019-04-11T20:01:05.769Z,4.10
2019-04-11T20:03:36.424Z,4.10
2019-04-11T20:06:06.316Z,4.10
2019-04-11T20:08:36.062Z,4.10
2019-04-11T20:11:05.835Z,4.10
2019-04-11T20:13:35.667Z,4.10
2019-04-11T20:16:05.718Z,4.10
2019-04-11T20:18:35.416Z,4.10
2019-04-11T20:21:07.664Z,4.00
2019-04-11T20:23:36.609Z,4.00
2019-04-11T20:26:06.291Z,4.10
2019-04-11T20:28:36.051Z,4.00
2019-04-11T20:31:05.735Z,4.00
2019-04-11T20:33:35.450Z,4.00
2019-04-11T20:36:05.272Z,4.00
2019-04-11T20:38:35.085Z,3.90
2019-04-11T20:41:04.900Z,3.90
2019-04-11T20:43:34.936Z,3.90
2019-04-11T20:46:04.645Z,3.90
2019-04-11T20:48:35.249Z,3.90
2019-04-11T20:51:05.182Z,3.90
2019-04-11T20:53:37.471Z,3.90
2019-04-11T20:56:09.492Z,3.90
2019-04-11T20:58:39.698Z,3.80
2019-04-11T21:01:09.414Z,3.80
2019-04-11T21:03:39.131Z,3.80
2019-04-11T21:06:08.936Z,3.80
2019-04-11T21:08:38.652Z,3.70
2019-04-11T21:11:08.340Z,3.70
2019-04-11T21:13:38.359Z,3.70
2019-04-11T21:16:08.751Z,3.70
2019-04-11T21:18:38.723Z,3.70
2019-04-11T21:21:08.559Z,3.70
2019-04-11T21:23:38.294Z,3.70
2019-04-11T21:26:08.186Z,3.60
2019-04-11T21:28:37.868Z,3.60
2019-04-11T21:31:07.863Z,3.70
2019-04-11T21:33:37.684Z,3.60
2019-04-11T21:36:07.338Z,3.60
2019-04-11T21:38:37.057Z,3.70
2019-04-11T21:41:06.816Z,3.70
2019-04-11T21:43:36.906Z,3.70
2019-04-11T21:46:07.539Z,3.70
2019-04-11T21:48:37.359Z,3.70
2019-04-11T21:51:11.080Z,3.70
2019-04-11T21:53:39.346Z,3.70
2019-04-11T21:56:09.041Z,3.70
2019-04-11T21:58:38.792Z,3.70
2019-04-11T22:01:12.062Z,3.70
2019-04-11T22:03:43.630Z,3.70
2019-04-11T22:06:13.359Z,3.70
2019-04-11T22:08:43.283Z,3.70
2019-04-11T22:11:13.063Z,3.70
2019-04-11T22:13:42.858Z,3.60
2019-04-11T22:16:14.272Z,3.60
2019-04-11T22:18:44.496Z,3.60
2019-04-11T22:21:15.587Z,3.60
2019-04-11T22:23:48.961Z,3.60
2019-04-11T22:26:17.206Z,3.60
2019-04-11T22:28:47.047Z,3.50
2019-04-11T22:31:16.868Z,3.50
2019-04-11T22:34:00.937Z,3.50
2019-04-11T22:36:30.851Z,3.40
2019-04-11T22:39:01.056Z,3.40
2019-04-11T22:41:32.932Z,3.40
2019-04-11T22:44:02.651Z,3.40
2019-04-11T22:46:32.387Z,3.30
2019-04-11T22:49:02.111Z,3.30
2019-04-11T22:51:32.917Z,3.30
2019-04-11T22:54:02.615Z,3.30
2019-04-11T22:56:32.287Z,3.30
2019-04-11T22:59:02.059Z,3.20
2019-04-11T23:01:31.903Z,3.20
2019-04-11T23:04:02.184Z,3.20
2019-04-11T23:06:31.996Z,3.20
2019-04-11T23:09:01.747Z,3.20
2019-04-11T23:11:33.166Z,3.20
2019-04-11T23:14:02.895Z,3.10
2019-04-11T23:16:32.523Z,3.10
2019-04-11T23:19:02.296Z,3.10
2019-04-11T23:21:31.931Z,3.10
2019-04-11T23:24:11.494Z,3.00
2019-04-11T23:26:34.313Z,3.00
2019-04-11T23:29:04.129Z,3.00
2019-04-11T23:31:33.860Z,3.00
2019-04-11T23:34:03.722Z,3.00
2019-04-11T23:36:33.432Z,3.00
2019-04-11T23:39:05.081Z,2.90
2019-04-11T23:41:34.848Z,2.90
2019-04-11T23:44:04.837Z,2.80
2019-04-11T23:46:34.561Z,2.80
2019-04-11T23:49:04.291Z,2.80
2019-04-11T23:51:34.131Z,2.80
2019-04-11T23:54:03.950Z,2.80
2019-04-11T23:56:33.689Z,2.80
2019-04-11T23:59:03.546Z,2.80
